PWSweather.com
Personal Weather Stations
Station Observations
SEVANL01
SevillaES 41004

SevillaES 41004

Lat: 37.383633, Lon: -5.985787

Elevation: 19.685

Station Type: Davis Vantage Pro2

Latest ConditionsUpdated 9:20:01 AM GMT+01:01 Saturday, Jan 31, 2015
Currently Today's Max Today's Min Today's Average
Temperature 57.7°F14.3°C 59.7°F15.4°C 57.6°F14.2°C 58.8°F14.9°C
Dew Point 54.2°F12.3°C 55.0°F12.8°C 54.2°F12.3°C 54.5°F12.5°C
Winds 6.0 mph SW9.7 kmh SW 10.0 mph WSW16.1 kmh WSW - 6.4 mph 10.3 kmh
Wind Gusts 16.0 mph25.7 kmh 25.0 mph40.2 kmh - -
Humidity 88% 89% 83% 86%
Pressure 29.69 in1005.4 mb 29.81 in1009.5 mb 29.67 in1004.7 mb -
Hour Temp Dew Point Humidity Winds Wind Gusts Pressure Precip Precip Rate Daily Precip Total
09:20 AM 57.7°F14.3°C 54.2°F12.3°C 88% 6.0 mph SW9.7 kmh SW 16.0 mph25.7 kmh 29.69 in1005.4 mb 0.00 in0.0 mm 0.00 in/hr0.0 mm/hr 0.00 in0.0 mm
09:00 AM 57.6°F14.2°C 54.3°F12.4°C 89% 6.0 mph SW9.7 kmh SW 20.0 mph32.2 kmh 29.69 in1005.4 mb 0.00 in0.0 mm 0.00 in/hr0.0 mm/hr 0.00 in0.0 mm
08:40 AM 57.9°F14.4°C 54.4°F12.4°C 88% 7.0 mph WSW11.3 kmh WSW 23.0 mph37.0 kmh 29.69 in1005.4 mb 0.00 in0.0 mm 0.00 in/hr0.0 mm/hr 0.00 in0.0 mm
08:20 AM 58.1°F14.5°C 54.2°F12.3°C 87% 6.0 mph SW9.7 kmh SW 21.0 mph33.8 kmh 29.68 in1005.1 mb 0.00 in0.0 mm 0.00 in/hr0.0 mm/hr 0.00 in0.0 mm
08:00 AM 58.5°F14.7°C 54.6°F12.6°C 87% 7.0 mph WSW11.3 kmh WSW 19.0 mph30.6 kmh 29.68 in1005.1 mb 0.00 in0.0 mm 0.00 in/hr0.0 mm/hr 0.00 in0.0 mm
07:40 AM 58.5°F14.7°C 54.6°F12.6°C 87% 9.0 mph WSW14.5 kmh WSW 22.0 mph35.4 kmh 29.68 in1005.1 mb 0.00 in0.0 mm 0.00 in/hr0.0 mm/hr 0.00 in0.0 mm
07:20 AM 58.3°F14.6°C 54.7°F12.6°C 88% 8.0 mph WSW12.9 kmh WSW 20.0 mph32.2 kmh 29.68 in1005.1 mb 0.00 in0.0 mm 0.00 in/hr0.0 mm/hr 0.00 in0.0 mm
07:00 AM 58.8°F14.9°C 55.0°F12.8°C 87% 10.0 mph WSW16.1 kmh WSW 24.0 mph38.6 kmh 29.68 in1005.1 mb 0.00 in0.0 mm 0.00 in/hr0.0 mm/hr 0.00 in0.0 mm
06:40 AM 59.2°F15.1°C 54.7°F12.6°C 85% 8.0 mph WSW12.9 kmh WSW 25.0 mph40.2 kmh 29.67 in1004.7 mb 0.00 in0.0 mm 0.00 in/hr0.0 mm/hr 0.00 in0.0 mm
06:20 AM 59.0°F15.0°C 54.8°F12.7°C 86% 7.0 mph SW11.3 kmh SW 24.0 mph38.6 kmh 29.67 in1004.7 mb 0.00 in0.0 mm 0.00 in/hr0.0 mm/hr 0.00 in0.0 mm
06:00 AM 59.0°F15.0°C 54.8°F12.7°C 86% 8.0 mph SW12.9 kmh SW 23.0 mph37.0 kmh 29.68 in1005.1 mb 0.00 in0.0 mm 0.00 in/hr0.0 mm/hr 0.00 in0.0 mm
05:40 AM 58.8°F14.9°C 54.6°F12.6°C 86% 6.0 mph SW9.7 kmh SW 22.0 mph35.4 kmh 29.68 in1005.1 mb 0.00 in0.0 mm 0.00 in/hr0.0 mm/hr 0.00 in0.0 mm
05:20 AM 58.6°F14.8°C 54.8°F12.7°C 87% 5.0 mph SW8.0 kmh SW 22.0 mph35.4 kmh 29.69 in1005.4 mb 0.00 in0.0 mm 0.00 in/hr0.0 mm/hr 0.00 in0.0 mm
05:00 AM 58.6°F14.8°C 54.5°F12.5°C 86% 6.0 mph SW9.7 kmh SW 15.0 mph24.1 kmh 29.70 in1005.8 mb 0.00 in0.0 mm 0.00 in/hr0.0 mm/hr 0.00 in0.0 mm
04:40 AM 58.6°F14.8°C 54.5°F12.5°C 86% 6.0 mph SW9.7 kmh SW 15.0 mph24.1 kmh 29.72 in1006.4 mb 0.00 in0.0 mm 0.00 in/hr0.0 mm/hr 0.00 in0.0 mm
04:20 AM 58.3°F14.6°C 54.4°F12.4°C 87% 6.0 mph SW9.7 kmh SW 16.0 mph25.7 kmh 29.72 in1006.4 mb 0.00 in0.0 mm 0.00 in/hr0.0 mm/hr 0.00 in0.0 mm
04:00 AM 58.3°F14.6°C 54.4°F12.4°C 87% 5.0 mph SW8.0 kmh SW 18.0 mph29.0 kmh 29.73 in1006.8 mb 0.00 in0.0 mm 0.00 in/hr0.0 mm/hr 0.00 in0.0 mm
03:40 AM 58.3°F14.6°C 54.4°F12.4°C 87% 6.0 mph SW9.7 kmh SW 17.0 mph27.4 kmh 29.75 in1007.5 mb 0.00 in0.0 mm 0.00 in/hr0.0 mm/hr 0.00 in0.0 mm
03:20 AM 58.5°F14.7°C 54.3°F12.4°C 86% 5.0 mph SW8.0 kmh SW 15.0 mph24.1 kmh 29.76 in1007.8 mb 0.00 in0.0 mm 0.00 in/hr0.0 mm/hr 0.00 in0.0 mm
03:00 AM 58.5°F14.7°C 54.3°F12.4°C 86% 6.0 mph SW9.7 kmh SW 15.0 mph24.1 kmh 29.77 in1008.1 mb 0.00 in0.0 mm 0.00 in/hr0.0 mm/hr 0.00 in0.0 mm
02:40 AM 58.8°F14.9°C 54.3°F12.4°C 85% 7.0 mph SW11.3 kmh SW 20.0 mph32.2 kmh 29.77 in1008.1 mb 0.00 in0.0 mm 0.00 in/hr0.0 mm/hr 0.00 in0.0 mm
02:20 AM 59.2°F15.1°C 54.3°F12.4°C 84% 5.0 mph SW8.0 kmh SW 15.0 mph24.1 kmh 29.77 in1008.1 mb 0.00 in0.0 mm 0.00 in/hr0.0 mm/hr 0.00 in0.0 mm
02:00 AM 59.4°F15.2°C 54.2°F12.3°C 83% 4.0 mph SW6.4 kmh SW 20.0 mph32.2 kmh 29.79 in1008.8 mb 0.00 in0.0 mm 0.00 in/hr0.0 mm/hr 0.00 in0.0 mm
01:40 AM 59.5°F15.3°C 54.4°F12.4°C 83% 6.0 mph SW9.7 kmh SW 19.0 mph30.6 kmh 29.79 in1008.8 mb 0.00 in0.0 mm 0.00 in/hr0.0 mm/hr 0.00 in0.0 mm
01:20 AM 59.5°F15.3°C 54.4°F12.4°C 83% 8.0 mph SW12.9 kmh SW 20.0 mph32.2 kmh 29.79 in1008.8 mb 0.00 in0.0 mm 0.00 in/hr0.0 mm/hr 0.00 in0.0 mm
01:00 AM 59.5°F15.3°C 54.4°F12.4°C 83% 7.0 mph WSW11.3 kmh WSW 18.0 mph29.0 kmh 29.80 in1009.1 mb 0.00 in0.0 mm 0.00 in/hr0.0 mm/hr 0.00 in0.0 mm
12:40 AM 59.7°F15.4°C 54.5°F12.5°C 83% 5.0 mph SW8.0 kmh SW 21.0 mph33.8 kmh 29.81 in1009.5 mb 0.00 in0.0 mm 0.00 in/hr0.0 mm/hr 0.00 in0.0 mm
12:20 AM 59.7°F15.4°C 54.5°F12.5°C 83% 6.0 mph SW9.7 kmh SW 15.0 mph24.1 kmh 29.81 in1009.5 mb 0.00 in0.0 mm 0.00 in/hr0.0 mm/hr 0.00 in0.0 mm
12:00 AM 59.7°F15.4°C 54.5°F12.5°C 83% 5.0 mph WSW8.0 kmh WSW 16.0 mph25.7 kmh 29.81 in1009.5 mb 0.00 in0.0 mm 0.00 in/hr0.0 mm/hr 0.00 in0.0 mm